createdAt,value
2022-09-10T00:00:10.178Z,14.60
2022-09-10T00:04:16.766Z,14.50
2022-09-10T00:08:21.904Z,14.50
2022-09-10T00:12:27.024Z,14.50
2022-09-10T00:16:31.392Z,14.50
2022-09-10T00:20:34.666Z,14.50
2022-09-10T00:24:38.928Z,14.40
2022-09-10T00:28:43.889Z,14.30
2022-09-10T00:32:52.650Z,14.30
2022-09-10T00:36:55.934Z,14.40
2022-09-10T00:41:04.904Z,14.30
2022-09-10T00:45:19.016Z,14.30
2022-09-10T00:49:30.004Z,14.30
2022-09-10T00:53:34.233Z,14.30
2022-09-10T00:57:39.217Z,14.20
2022-09-10T01:01:44.356Z,14.20
2022-09-10T01:05:48.524Z,14.10
2022-09-10T01:09:53.154Z,14.10
2022-09-10T01:14:16.807Z,14.20
2022-09-10T01:18:34.220Z,14.10
2022-09-10T01:22:49.757Z,14.10
2022-09-10T01:27:20.722Z,14.10
2022-09-10T01:31:32.444Z,14.10
2022-09-10T01:35:40.899Z,14.10
2022-09-10T01:39:45.906Z,14.10
2022-09-10T01:43:50.542Z,14.10
2022-09-10T01:48:09.716Z,14.10
2022-09-10T01:52:26.442Z,14.00
2022-09-10T01:56:39.446Z,14.00
2022-09-10T02:00:50.139Z,14.00
2022-09-10T02:04:54.747Z,13.90
2022-09-10T02:09:00.345Z,14.00
2022-09-10T02:13:03.935Z,13.90
2022-09-10T02:17:08.489Z,13.90
2022-09-10T02:21:13.472Z,13.90
2022-09-10T02:25:17.446Z,13.90
2022-09-10T02:29:20.705Z,13.70
2022-09-10T02:33:25.368Z,13.80
2022-09-10T02:37:28.623Z,13.60
2022-09-10T02:41:34.089Z,13.60
2022-09-10T02:45:38.616Z,13.50
2022-09-10T02:49:45.928Z,13.40
2022-09-10T02:53:49.326Z,13.40
2022-09-10T02:57:52.673Z,13.30
2022-09-10T03:01:56.442Z,13.30
2022-09-10T03:06:01.175Z,13.20
2022-09-10T03:10:06.018Z,13.10
2022-09-10T03:14:13.201Z,13.10
2022-09-10T03:18:16.454Z,13.20
2022-09-10T03:22:21.439Z,13.10
2022-09-10T03:26:26.357Z,13.10
2022-09-10T03:30:29.547Z,13.10
2022-09-10T03:34:32.724Z,13.10
2022-09-10T03:38:37.532Z,13.10
2022-09-10T03:42:40.746Z,13.10
2022-09-10T03:46:45.692Z,13.00
2022-09-10T03:50:51.353Z,13.20
2022-09-10T03:54:58.513Z,13.20
2022-09-10T03:59:01.840Z,13.10
2022-09-10T04:03:05.466Z,13.10
2022-09-10T04:07:08.694Z,13.00
2022-09-10T04:11:13.857Z,12.90
2022-09-10T04:15:17.458Z,12.70
2022-09-10T04:19:20.967Z,12.70
2022-09-10T04:23:24.248Z,12.50
2022-09-10T04:27:28.871Z,12.40
2022-09-10T04:31:34.777Z,12.40
2022-09-10T04:35:39.526Z,12.30
2022-09-10T04:39:43.772Z,12.20
2022-09-10T04:43:49.442Z,12.20
2022-09-10T04:47:54.366Z,12.10
2022-09-10T04:51:57.665Z,12.20
2022-09-10T04:56:00.960Z,12.20
2022-09-10T05:00:09.170Z,12.30
2022-09-10T05:04:12.363Z,12.30
2022-09-10T05:08:15.728Z,12.20
2022-09-10T05:12:20.104Z,12.20
2022-09-10T05:16:24.810Z,12.10
2022-09-10T05:20:28.610Z,12.10
2022-09-10T05:24:32.021Z,12.20
2022-09-10T05:28:39.741Z,12.30
2022-09-10T05:32:44.704Z,12.50
2022-09-10T05:36:48.915Z,12.50
2022-09-10T05:40:52.442Z,12.50
2022-09-10T05:44:55.998Z,12.60
2022-09-10T05:49:01.016Z,12.70
2022-09-10T05:53:04.680Z,12.80
2022-09-10T05:57:08.161Z,12.90
2022-09-10T06:01:11.734Z,13.10
2022-09-10T06:05:16.468Z,13.20
2022-09-10T06:09:20.405Z,13.20
2022-09-10T06:13:24.083Z,13.30
2022-09-10T06:17:27.448Z,13.30
2022-09-10T06:21:32.485Z,13.40
2022-09-10T06:25:35.768Z,13.50
2022-09-10T06:29:39.227Z,13.50
2022-09-10T06:33:42.422Z,13.60
2022-09-10T06:37:47.447Z,13.80
2022-09-10T06:41:50.600Z,13.90
2022-09-10T06:45:54.980Z,14.00
2022-09-10T06:49:58.534Z,14.00
2022-09-10T06:54:03.306Z,14.10
2022-09-10T06:58:06.510Z,14.20
2022-09-10T07:02:10.390Z,14.40
2022-09-10T07:06:15.815Z,14.60
2022-09-10T07:10:20.662Z,14.80
2022-09-10T07:14:23.907Z,14.80
2022-09-10T07:18:28.848Z,15.00
2022-09-10T07:22:32.466Z,15.10
2022-09-10T07:26:37.369Z,15.20
2022-09-10T07:30:41.161Z,15.40
2022-09-10T07:34:44.538Z,15.60
2022-09-10T07:38:48.061Z,15.70
2022-09-10T07:42:53.304Z,16.10
2022-09-10T07:46:56.551Z,16.50
2022-09-10T07:51:04.029Z,17.00
2022-09-10T07:55:08.127Z,17.60
2022-09-10T07:59:13.306Z,17.80
2022-09-10T08:03:18.508Z,18.30
2022-09-10T08:07:22.015Z,18.60
2022-09-10T08:11:26.620Z,19.00
2022-09-10T08:15:31.163Z,19.80
2022-09-10T08:19:36.759Z,20.30
2022-09-10T08:23:40.538Z,20.90
2022-09-10T08:27:43.904Z,21.10
2022-09-10T08:31:48.631Z,20.90
2022-09-10T08:35:57.138Z,20.60
2022-09-10T08:40:01.337Z,20.10
2022-09-10T08:44:08.135Z,20.90
2022-09-10T08:48:18.934Z,22.00
2022-09-10T08:52:31.225Z,24.90
2022-09-10T08:56:35.671Z,28.10
2022-09-10T09:00:44.254Z,29.60
2022-09-10T09:04:55.164Z,30.90
2022-09-10T09:09:01.267Z,29.20
2022-09-10T09:13:35.192Z,27.80
2022-09-10T09:17:52.632Z,29.00
2022-09-10T09:22:01.631Z,29.80
2022-09-10T09:26:11.558Z,29.60
2022-09-10T09:30:19.875Z,29.50
2022-09-10T09:34:33.190Z,29.50
2022-09-10T09:38:41.649Z,29.10
2022-09-10T09:42:52.567Z,28.90
2022-09-10T09:46:56.504Z,29.40
2022-09-10T09:51:00.637Z,29.10
2022-09-10T09:55:15.217Z,28.80
2022-09-10T09:59:30.397Z,28.90
2022-09-10T10:03:36.995Z,29.10
2022-09-10T10:07:40.649Z,29.40
2022-09-10T10:11:50.151Z,30.20
2022-09-10T10:15:54.205Z,30.40
2022-09-10T10:20:04.537Z,30.00
2022-09-10T10:24:31.790Z,29.50
2022-09-10T10:28:36.410Z,29.30
2022-09-10T10:32:44.758Z,29.80
2022-09-10T10:36:57.229Z,30.20
2022-09-10T10:41:17.440Z,29.50
2022-09-10T10:45:37.193Z,31.40
2022-09-10T10:49:52.219Z,33.40
2022-09-10T10:54:11.188Z,34.30
2022-09-10T10:58:40.296Z,33.30
2022-09-10T11:02:54.506Z,33.30
2022-09-10T11:07:03.931Z,34.00
2022-09-10T11:11:14.396Z,34.30
2022-09-10T11:15:29.479Z,34.10
2022-09-10T11:19:38.684Z,34.50
2022-09-10T11:23:51.733Z,35.30
2022-09-10T11:28:02.233Z,35.80
2022-09-10T11:32:09.744Z,34.00
2022-09-10T11:36:23.264Z,31.80
2022-09-10T11:40:34.007Z,29.40
2022-09-10T11:44:47.335Z,28.10
2022-09-10T11:48:55.233Z,28.40
2022-09-10T11:53:01.554Z,29.10
2022-09-10T11:57:11.456Z,31.00
2022-09-10T12:01:24.664Z,31.50
2022-09-10T12:05:36.503Z,30.20
2022-09-10T12:09:51.750Z,29.00
2022-09-10T12:13:57.679Z,27.00
2022-09-10T12:18:06.855Z,26.20
2022-09-10T12:22:21.303Z,25.90
2022-09-10T12:26:33.292Z,25.30
2022-09-10T12:31:09.846Z,24.80
2022-09-10T12:35:53.441Z,25.20
2022-09-10T12:40:35.488Z,28.30
2022-09-10T12:44:58.016Z,31.80
2022-09-10T12:49:13.030Z,31.80
2022-09-10T12:54:06.006Z,30.30
2022-09-10T12:58:22.355Z,28.40
2022-09-10T13:02:33.563Z,26.80
2022-09-10T13:06:40.172Z,25.30
2022-09-10T13:10:50.612Z,24.10
2022-09-10T13:14:57.584Z,22.00
2022-09-10T13:19:43.379Z,20.30
2022-09-10T13:23:48.890Z,19.30
2022-09-10T13:27:52.071Z,18.80
2022-09-10T13:32:02.069Z,18.70
2022-09-10T13:36:23.440Z,18.70
2022-09-10T13:40:49.198Z,18.60
2022-09-10T13:45:21.954Z,20.10
2022-09-10T13:49:33.820Z,20.50
2022-09-10T13:53:42.600Z,20.10
2022-09-10T13:57:52.583Z,19.40
2022-09-10T14:01:57.840Z,19.10
2022-09-10T14:06:05.359Z,18.50
2022-09-10T14:10:12.611Z,18.40
2022-09-10T14:14:30.376Z,18.10
2022-09-10T14:18:43.408Z,18.00
2022-09-10T14:22:50.571Z,17.90
2022-09-10T14:27:16.686Z,17.60
2022-09-10T14:31:30.002Z,17.40
2022-09-10T14:35:40.816Z,17.40
2022-09-10T14:39:45.685Z,17.40
2022-09-10T14:43:52.348Z,17.30
2022-09-10T14:47:56.197Z,17.30
2022-09-10T14:52:00.147Z,17.20
2022-09-10T14:56:03.938Z,17.10
2022-09-10T15:00:15.465Z,17.00
2022-09-10T15:04:23.758Z,17.00
2022-09-10T15:08:27.271Z,17.10
2022-09-10T15:12:32.142Z,16.90
2022-09-10T15:16:37.808Z,16.90
2022-09-10T15:20:43.202Z,16.80
2022-09-10T15:25:08.060Z,16.80
2022-09-10T15:29:10.737Z,16.80
2022-09-10T15:33:15.495Z,16.90
2022-09-10T15:37:19.117Z,16.90
2022-09-10T15:41:22.861Z,16.90
2022-09-10T15:45:26.550Z,16.90
2022-09-10T15:49:45.405Z,17.10
2022-09-10T15:53:49.439Z,17.20
2022-09-10T15:57:53.212Z,17.20
2022-09-10T16:01:56.464Z,17.30
2022-09-10T16:06:05.771Z,17.40
2022-09-10T16:10:09.360Z,17.40
2022-09-10T16:14:16.965Z,17.30
2022-09-10T16:18:20.160Z,17.40
2022-09-10T16:22:25.154Z,17.30
2022-09-10T16:35:40.166Z,17.00
2022-09-10T16:39:45.037Z,16.90
2022-09-10T16:43:48.397Z,16.90
2022-09-10T16:47:52.249Z,16.80
2022-09-10T16:51:55.570Z,16.80
2022-09-10T16:56:05.229Z,16.80
2022-09-10T17:00:10.517Z,16.80
2022-09-10T17:04:19.229Z,16.70
2022-09-10T17:08:25.494Z,16.70
2022-09-10T17:12:30.179Z,16.50
2022-09-10T17:16:35.536Z,16.50
2022-09-10T17:20:39.281Z,16.40
2022-09-10T17:24:42.726Z,16.20
2022-09-10T17:28:54.300Z,16.20
2022-09-10T17:32:59.735Z,16.10
2022-09-10T17:37:02.980Z,16.20
2022-09-10T17:41:06.762Z,16.10
2022-09-10T17:45:13.612Z,16.00
2022-09-10T17:49:17.308Z,16.00
2022-09-10T17:53:26.658Z,16.00
2022-09-10T17:57:38.401Z,15.90
2022-09-10T18:01:44.832Z,15.90
2022-09-10T18:05:50.942Z,15.80
2022-09-10T18:09:57.625Z,15.80
2022-09-10T18:14:11.873Z,15.80
2022-09-10T18:18:18.123Z,15.70
2022-09-10T18:22:36.353Z,15.60
2022-09-10T18:26:44.246Z,15.60
2022-09-10T18:30:56.449Z,15.50
2022-09-10T18:35:16.394Z,15.30
2022-09-10T18:39:23.454Z,15.10
2022-09-10T18:43:38.416Z,15.10
2022-09-10T18:47:56.764Z,15.10
2022-09-10T18:52:09.092Z,15.00
2022-09-10T18:56:19.488Z,14.80
2022-09-10T19:00:25.014Z,14.50
2022-09-10T19:05:07.472Z,14.40
2022-09-10T19:09:13.030Z,14.20
2022-09-10T19:13:22.923Z,13.80
2022-09-10T19:17:35.899Z,13.60
2022-09-10T19:21:40.936Z,13.40
2022-09-10T19:25:53.120Z,13.30
2022-09-10T19:29:57.734Z,13.20
2022-09-10T19:34:03.414Z,13.10
2022-09-10T19:38:27.236Z,12.90
2022-09-10T19:42:32.362Z,12.80
2022-09-10T19:46:38.743Z,12.70
2022-09-10T19:50:42.657Z,12.60
2022-09-10T19:54:46.165Z,12.50
2022-09-10T19:58:53.114Z,12.40
2022-09-10T20:02:56.775Z,12.40
2022-09-10T20:07:00.719Z,12.30
2022-09-10T20:11:06.246Z,12.30
2022-09-10T20:15:11.638Z,12.30
2022-09-10T20:19:18.983Z,12.20
2022-09-10T20:23:23.101Z,12.20
2022-09-10T20:27:27.685Z,12.10
2022-09-10T20:31:34.272Z,12.10
2022-09-10T20:35:37.604Z,12.10
2022-09-10T20:39:42.799Z,12.20
2022-09-10T20:43:49.985Z,12.10
2022-09-10T20:47:54.492Z,12.10
2022-09-10T20:51:59.640Z,12.00
2022-09-10T20:56:05.786Z,12.00
2022-09-10T21:00:11.543Z,11.90
2022-09-10T21:04:16.350Z,11.80
2022-09-10T21:08:20.418Z,11.80
2022-09-10T21:12:23.681Z,11.70
2022-09-10T21:16:28.420Z,11.60
2022-09-10T21:20:32.982Z,11.50
2022-09-10T21:24:36.564Z,11.50
2022-09-10T21:28:39.884Z,11.50
2022-09-10T21:32:43.077Z,11.40
2022-09-10T21:36:47.812Z,11.30
2022-09-10T21:40:57.505Z,11.30
2022-09-10T21:45:01.453Z,11.30
2022-09-10T21:49:05.214Z,11.20
2022-09-10T21:53:11.335Z,11.30
2022-09-10T21:57:15.553Z,11.40
2022-09-10T22:01:20.847Z,11.40
2022-09-10T22:05:24.156Z,11.20
2022-09-10T22:09:28.696Z,11.20
2022-09-10T22:13:33.123Z,11.20
2022-09-10T22:17:36.262Z,11.20
2022-09-10T22:21:40.961Z,11.20
2022-09-10T22:25:45.468Z,11.20
2022-09-10T22:29:48.769Z,11.10
2022-09-10T22:33:55.186Z,11.00
2022-09-10T22:37:58.822Z,11.00
2022-09-10T22:42:04.550Z,11.10
2022-09-10T22:46:08.428Z,11.00
2022-09-10T22:50:12.630Z,11.00
2022-09-10T22:54:17.538Z,10.90
2022-09-10T22:58:22.368Z,10.80
2022-09-10T23:02:25.597Z,10.80
2022-09-10T23:06:31.440Z,10.80
2022-09-10T23:10:34.893Z,10.80
2022-09-10T23:14:39.403Z,10.70
2022-09-10T23:18:44.647Z,10.70
2022-09-10T23:22:49.541Z,10.60
2022-09-10T23:26:53.277Z,10.60
2022-09-10T23:31:08.243Z,10.50
2022-09-10T23:35:11.614Z,10.50
2022-09-10T23:39:16.538Z,10.40
2022-09-10T23:43:19.744Z,10.40
2022-09-10T23:47:24.330Z,10.40
2022-09-10T23:51:27.945Z,10.30
2022-09-10T23:55:31.226Z,10.30
2022-09-10T23:59:34.544Z,10.30
